createdAt,value
2018-08-06T00:00:31.201Z,17.97
2018-08-06T00:02:59.662Z,17.94
2018-08-06T00:05:28.050Z,17.91
2018-08-06T00:07:56.421Z,17.87
2018-08-06T00:10:26.105Z,17.81
2018-08-06T00:12:54.675Z,17.76
2018-08-06T00:15:23.039Z,17.76
2018-08-06T00:17:51.551Z,17.74
2018-08-06T00:20:19.946Z,17.64
2018-08-06T00:22:48.357Z,17.63
2018-08-06T00:25:17.564Z,17.64
2018-08-06T00:27:46.542Z,17.65
2018-08-06T00:30:16.758Z,17.59
2018-08-06T00:32:46.061Z,17.53
2018-08-06T00:35:15.002Z,17.52
2018-08-06T00:37:43.459Z,17.50
2018-08-06T00:40:13.456Z,17.47
2018-08-06T00:42:42.534Z,17.41
2018-08-06T00:45:13.139Z,17.35
2018-08-06T00:47:41.732Z,17.34
2018-08-06T00:50:10.670Z,17.39
2018-08-06T00:52:40.557Z,17.27
2018-08-06T00:55:13.247Z,17.25
2018-08-06T00:57:41.712Z,17.16
2018-08-06T01:00:13.088Z,17.15
2018-08-06T01:02:41.639Z,17.14
2018-08-06T01:05:11.351Z,17.07
2018-08-06T01:07:40.431Z,17.09
2018-08-06T01:10:12.103Z,17.01
2018-08-06T01:12:41.113Z,17.06
2018-08-06T01:15:11.175Z,17.01
2018-08-06T01:17:39.582Z,16.97
2018-08-06T01:20:09.667Z,16.94
2018-08-06T01:22:38.316Z,16.93
2018-08-06T01:25:06.770Z,16.89
2018-08-06T01:27:35.717Z,16.88
2018-08-06T01:30:04.390Z,16.84
2018-08-06T01:32:32.739Z,16.81
2018-08-06T01:35:01.045Z,16.76
2018-08-06T01:37:29.414Z,16.74
2018-08-06T01:39:57.761Z,16.72
2018-08-06T01:42:26.140Z,16.70
2018-08-06T01:44:54.554Z,16.65
2018-08-06T01:47:22.997Z,16.60
2018-08-06T01:49:51.506Z,16.61
2018-08-06T01:52:19.834Z,16.57
2018-08-06T01:54:48.207Z,16.52
2018-08-06T01:57:16.568Z,16.51
2018-08-06T01:59:44.900Z,16.51
2018-08-06T02:02:13.283Z,16.45
2018-08-06T02:04:41.697Z,16.44
2018-08-06T02:07:10.156Z,16.39
2018-08-06T02:09:38.858Z,16.37
2018-08-06T02:12:08.390Z,16.33
2018-08-06T02:14:36.950Z,16.30
2018-08-06T02:17:06.430Z,16.28
2018-08-06T02:19:34.906Z,16.26
2018-08-06T02:22:03.255Z,16.21
2018-08-06T02:24:31.666Z,16.21
2018-08-06T02:27:00.116Z,16.24
2018-08-06T02:29:28.509Z,16.20
2018-08-06T02:31:58.014Z,16.18
2018-08-06T02:34:26.410Z,16.11
2018-08-06T02:36:54.850Z,16.11
2018-08-06T02:39:23.196Z,16.07
2018-08-06T02:41:51.634Z,16.04
2018-08-06T02:44:20.032Z,16.03
2018-08-06T02:46:48.352Z,15.99
2018-08-06T02:49:16.804Z,15.93
2018-08-06T02:51:45.302Z,15.91
2018-08-06T02:54:13.632Z,15.95
2018-08-06T02:56:42.375Z,15.92
2018-08-06T02:59:10.831Z,15.86
2018-08-06T03:01:39.235Z,15.86
2018-08-06T03:04:07.736Z,15.85
2018-08-06T03:06:37.104Z,15.83
2018-08-06T03:09:09.744Z,15.81
2018-08-06T03:11:38.212Z,15.77
2018-08-06T03:14:06.638Z,15.76
2018-08-06T03:16:35.887Z,15.71
2018-08-06T03:19:04.382Z,15.72
2018-08-06T03:21:32.821Z,15.70
2018-08-06T03:24:01.209Z,15.64
2018-08-06T03:26:29.649Z,15.65
2018-08-06T03:28:58.072Z,15.65
2018-08-06T03:31:26.483Z,15.63
2018-08-06T03:33:54.920Z,15.62
2018-08-06T03:36:23.360Z,15.59
2018-08-06T03:38:51.753Z,15.53
2018-08-06T03:41:20.171Z,15.49
2018-08-06T03:43:48.540Z,15.46
2018-08-06T03:46:18.799Z,15.44
2018-08-06T03:48:47.135Z,15.43
2018-08-06T03:51:16.064Z,15.39
2018-08-06T03:53:44.872Z,15.37
2018-08-06T03:56:19.498Z,15.40
2018-08-06T03:58:50.053Z,15.31
2018-08-06T04:01:18.618Z,15.34
2018-08-06T04:03:48.529Z,15.35
2018-08-06T04:06:21.089Z,15.32
2018-08-06T04:08:49.429Z,15.29
2018-08-06T04:11:17.744Z,15.29
2018-08-06T04:13:46.504Z,15.29
2018-08-06T04:16:16.224Z,15.18
2018-08-06T04:18:44.628Z,15.17
2018-08-06T04:21:13.623Z,15.23
2018-08-06T04:23:42.222Z,15.24
2018-08-06T04:26:11.590Z,15.20
2018-08-06T04:28:40.039Z,15.23
2018-08-06T04:31:08.410Z,15.23
2018-08-06T04:33:36.926Z,15.20
2018-08-06T04:36:05.423Z,15.23
2018-08-06T04:38:33.878Z,15.24
2018-08-06T04:41:02.239Z,15.24
2018-08-06T04:43:30.673Z,15.28
2018-08-06T04:45:59.258Z,15.27
2018-08-06T04:48:27.749Z,15.29
2018-08-06T04:50:56.109Z,15.30
2018-08-06T04:53:27.372Z,15.36
2018-08-06T04:55:57.539Z,15.42
2018-08-06T04:58:25.929Z,15.46
2018-08-06T05:00:55.040Z,15.48
2018-08-06T05:03:23.449Z,15.54
2018-08-06T05:05:51.829Z,15.58
2018-08-06T05:08:20.354Z,15.60
2018-08-06T05:10:48.759Z,15.63
2018-08-06T05:13:17.286Z,15.65
2018-08-06T05:15:45.705Z,15.67
2018-08-06T05:18:14.046Z,15.71
2018-08-06T05:20:42.449Z,15.74
2018-08-06T05:23:11.078Z,15.81
2018-08-06T05:25:40.454Z,15.89
2018-08-06T05:28:08.928Z,15.90
2018-08-06T05:30:37.270Z,15.94
2018-08-06T05:33:05.647Z,16.08
2018-08-06T05:35:34.128Z,16.12
2018-08-06T05:38:02.545Z,16.20
2018-08-06T05:40:30.940Z,16.22
2018-08-06T05:42:59.401Z,16.29
2018-08-06T05:45:27.739Z,16.40
2018-08-06T05:47:56.152Z,16.50
2018-08-06T05:50:24.587Z,16.63
2018-08-06T05:52:52.981Z,16.68
2018-08-06T05:55:21.396Z,16.75
2018-08-06T05:57:49.771Z,16.91
2018-08-06T06:00:19.241Z,16.99
2018-08-06T06:02:48.903Z,17.03
2018-08-06T06:05:17.805Z,17.30
2018-08-06T06:07:46.210Z,18.24
2018-08-06T06:10:15.840Z,19.16
2018-08-06T06:12:44.271Z,19.48
2018-08-06T06:15:14.879Z,20.05
2018-08-06T06:17:43.927Z,20.47
2018-08-06T06:20:12.370Z,20.39
2018-08-06T06:22:40.822Z,20.43
2018-08-06T06:25:11.512Z,20.78
2018-08-06T06:27:39.957Z,20.97
2018-08-06T06:30:10.849Z,21.14
2018-08-06T06:32:39.292Z,22.02
2018-08-06T06:35:07.691Z,22.31
2018-08-06T06:37:36.081Z,22.83
2018-08-06T06:40:05.041Z,22.94
2018-08-06T06:42:33.411Z,23.04
2018-08-06T06:45:01.828Z,22.34
2018-08-06T06:47:30.199Z,22.06
2018-08-06T06:49:58.532Z,22.92
2018-08-06T06:52:26.980Z,23.26
2018-08-06T06:54:55.333Z,22.82
2018-08-06T06:57:23.805Z,22.92
2018-08-06T06:59:52.278Z,23.24
2018-08-06T07:02:20.602Z,22.29
2018-08-06T07:04:49.035Z,23.42
2018-08-06T07:07:17.443Z,23.09
2018-08-06T07:09:45.843Z,23.01
2018-08-06T07:12:14.275Z,23.12
2018-08-06T07:14:42.635Z,23.43
2018-08-06T07:17:11.116Z,24.03
2018-08-06T07:19:39.498Z,23.82
2018-08-06T07:22:07.949Z,23.73
2018-08-06T07:24:36.486Z,24.75
2018-08-06T07:27:04.946Z,25.42
2018-08-06T07:29:33.545Z,25.42
2018-08-06T07:32:01.936Z,25.23
2018-08-06T07:34:30.387Z,24.71
2018-08-06T07:36:58.944Z,24.31
2018-08-06T07:39:27.386Z,24.16
2018-08-06T07:41:55.756Z,24.04
2018-08-06T07:44:24.216Z,23.48
2018-08-06T07:46:52.624Z,24.24
2018-08-06T07:49:23.611Z,24.88
2018-08-06T07:51:52.096Z,25.10
2018-08-06T07:54:20.694Z,25.40
2018-08-06T07:56:49.387Z,25.07
2018-08-06T07:59:17.824Z,24.77
2018-08-06T08:01:46.374Z,25.07
2018-08-06T08:04:15.136Z,25.26
2018-08-06T08:06:43.876Z,24.90
2018-08-06T08:09:12.996Z,25.51
2018-08-06T08:11:41.485Z,25.40
2018-08-06T08:14:14.555Z,25.65
2018-08-06T08:16:42.976Z,25.75
2018-08-06T08:19:11.632Z,24.75
2018-08-06T08:21:40.033Z,24.38
2018-08-06T08:24:08.536Z,24.71
2018-08-06T08:26:36.904Z,24.83
2018-08-06T08:29:05.441Z,24.87
2018-08-06T08:31:34.367Z,25.02
2018-08-06T08:34:02.858Z,24.99
2018-08-06T08:36:33.034Z,24.97
2018-08-06T08:39:01.507Z,25.09
2018-08-06T08:41:29.993Z,25.23
2018-08-06T08:43:58.412Z,25.00
2018-08-06T08:46:26.919Z,24.94
2018-08-06T08:48:55.555Z,24.44
2018-08-06T08:51:24.013Z,24.25
2018-08-06T08:53:53.616Z,24.19
2018-08-06T08:56:22.615Z,24.63
2018-08-06T08:58:51.229Z,24.55
2018-08-06T09:01:19.599Z,24.93
2018-08-06T09:03:48.905Z,24.85
2018-08-06T09:06:17.296Z,24.91
2018-08-06T09:08:45.934Z,25.23
2018-08-06T09:11:14.543Z,25.25
2018-08-06T09:13:42.922Z,25.04
2018-08-06T09:16:11.388Z,25.36
2018-08-06T09:18:39.870Z,25.31
2018-08-06T09:21:09.025Z,25.09
2018-08-06T09:23:37.359Z,25.22
2018-08-06T09:26:05.781Z,24.96
2018-08-06T09:28:34.183Z,25.36
2018-08-06T09:31:02.651Z,25.16
2018-08-06T09:33:31.533Z,25.39
2018-08-06T09:35:59.907Z,25.48
2018-08-06T09:38:28.252Z,25.42
2018-08-06T09:40:56.682Z,25.58
2018-08-06T09:43:25.131Z,25.92
2018-08-06T09:45:53.509Z,25.98
2018-08-06T09:48:21.970Z,26.05
2018-08-06T09:50:51.865Z,26.14
2018-08-06T09:53:20.368Z,26.20
2018-08-06T09:55:49.153Z,26.20
2018-08-06T09:58:17.663Z,26.23
2018-08-06T10:00:51.168Z,26.25
2018-08-06T10:03:22.578Z,26.36
2018-08-06T10:05:51.033Z,26.20
2018-08-06T10:08:19.640Z,26.29
2018-08-06T10:10:48.041Z,26.49
2018-08-06T10:13:16.466Z,26.35
2018-08-06T10:15:45.999Z,26.44
2018-08-06T10:18:14.667Z,26.47
2018-08-06T10:20:43.420Z,26.81
2018-08-06T10:23:12.098Z,26.73
2018-08-06T10:25:41.902Z,26.81
2018-08-06T10:28:10.487Z,26.88
2018-08-06T10:30:38.962Z,26.96
2018-08-06T10:33:08.775Z,26.25
2018-08-06T10:35:37.573Z,26.18
2018-08-06T10:38:06.261Z,26.69
2018-08-06T10:40:34.933Z,26.81
2018-08-06T10:43:03.552Z,26.69
2018-08-06T10:45:32.193Z,26.49
2018-08-06T10:48:00.799Z,26.52
2018-08-06T10:50:29.354Z,26.64
2018-08-06T10:52:57.760Z,26.73
2018-08-06T10:55:26.340Z,27.02
2018-08-06T10:57:54.908Z,27.01
2018-08-06T11:00:24.202Z,26.89
2018-08-06T11:02:52.915Z,26.81
2018-08-06T11:05:21.673Z,27.23
2018-08-06T11:07:50.147Z,27.29
2018-08-06T11:10:20.908Z,27.39
2018-08-06T11:12:49.473Z,27.21
2018-08-06T11:15:26.152Z,27.39
2018-08-06T11:17:54.758Z,27.58
2018-08-06T11:20:23.889Z,27.71
2018-08-06T11:22:52.522Z,27.82
2018-08-06T11:25:22.464Z,27.99
2018-08-06T11:27:51.001Z,28.13
2018-08-06T11:30:20.943Z,27.91
2018-08-06T11:32:50.338Z,27.46
2018-08-06T11:35:18.941Z,27.16
2018-08-06T11:37:47.355Z,27.22
2018-08-06T11:40:16.468Z,27.40
2018-08-06T11:42:45.639Z,27.64
2018-08-06T11:45:16.809Z,27.76
2018-08-06T11:47:45.365Z,27.63
2018-08-06T11:50:13.780Z,27.79
2018-08-06T11:52:42.479Z,27.62
2018-08-06T11:55:11.238Z,27.89
2018-08-06T11:57:39.740Z,27.74
2018-08-06T12:00:18.507Z,27.79
2018-08-06T12:02:47.104Z,28.13
2018-08-06T12:05:15.536Z,28.22
2018-08-06T12:07:44.007Z,28.18
2018-08-06T12:10:14.895Z,28.06
2018-08-06T12:12:44.436Z,28.12
2018-08-06T12:15:12.838Z,28.25
2018-08-06T12:17:41.812Z,28.35
2018-08-06T12:20:12.669Z,28.32
2018-08-06T12:22:42.260Z,28.50
2018-08-06T12:25:11.782Z,28.44
2018-08-06T12:27:40.209Z,28.43
2018-08-06T12:30:11.492Z,28.45
2018-08-06T12:32:39.864Z,28.47
2018-08-06T12:35:08.429Z,28.48
2018-08-06T12:37:36.829Z,28.57
2018-08-06T12:40:07.761Z,28.57
2018-08-06T12:42:36.207Z,28.83
2018-08-06T12:45:05.298Z,28.68
2018-08-06T12:47:33.676Z,28.73
2018-08-06T12:50:02.914Z,28.71
2018-08-06T12:52:31.489Z,28.80
2018-08-06T12:54:59.785Z,28.92
2018-08-06T12:57:28.445Z,28.82
2018-08-06T12:59:56.908Z,28.93
2018-08-06T13:02:25.448Z,28.88
2018-08-06T13:04:53.960Z,28.87
2018-08-06T13:07:22.278Z,29.16
2018-08-06T13:09:50.711Z,29.21
2018-08-06T13:12:19.132Z,29.15
2018-08-06T13:14:47.573Z,29.15
2018-08-06T13:17:17.483Z,29.16
2018-08-06T13:19:45.924Z,29.13
2018-08-06T13:22:14.484Z,29.21
2018-08-06T13:24:42.856Z,29.22
2018-08-06T13:27:11.809Z,29.19
2018-08-06T13:29:40.236Z,29.12
2018-08-06T13:32:08.715Z,29.42
2018-08-06T13:34:37.397Z,29.27
2018-08-06T13:37:05.932Z,29.34
2018-08-06T13:39:34.273Z,29.32
2018-08-06T13:42:02.598Z,29.32
2018-08-06T13:44:31.088Z,29.34
2018-08-06T13:46:59.590Z,29.36
2018-08-06T13:49:27.885Z,29.41
2018-08-06T13:51:56.273Z,29.56
2018-08-06T13:54:24.672Z,29.43
2018-08-06T13:56:53.021Z,29.48
2018-08-06T13:59:24.082Z,29.28
2018-08-06T14:01:52.358Z,29.42
2018-08-06T14:04:21.953Z,29.38
2018-08-06T14:06:50.359Z,29.42
2018-08-06T14:09:18.845Z,29.43
2018-08-06T14:11:47.200Z,29.48
2018-08-06T14:14:15.559Z,29.53
2018-08-06T14:16:43.947Z,29.57
2018-08-06T14:19:12.534Z,29.44
2018-08-06T14:21:40.884Z,29.48
2018-08-06T14:24:09.368Z,29.44
2018-08-06T14:26:39.232Z,29.55
2018-08-06T14:29:07.710Z,29.47
2018-08-06T14:31:36.350Z,29.57
2018-08-06T14:34:04.772Z,29.62
2018-08-06T14:36:33.111Z,29.88
2018-08-06T14:39:01.826Z,29.65
2018-08-06T14:41:30.145Z,29.58
2018-08-06T14:43:58.509Z,29.71
2018-08-06T14:46:26.792Z,29.68
2018-08-06T14:48:55.219Z,29.57
2018-08-06T14:51:23.576Z,29.71
2018-08-06T14:53:52.844Z,29.74
2018-08-06T14:56:21.308Z,29.81
2018-08-06T14:58:49.904Z,29.69
2018-08-06T15:01:18.384Z,29.69
2018-08-06T15:03:46.896Z,29.73
2018-08-06T15:06:15.719Z,29.67
2018-08-06T15:08:44.020Z,29.62
2018-08-06T15:11:12.476Z,29.83
2018-08-06T15:13:40.941Z,29.91
2018-08-06T15:16:09.432Z,29.75
2018-08-06T15:18:37.949Z,29.89
2018-08-06T15:21:06.569Z,29.87
2018-08-06T15:23:34.994Z,29.91
2018-08-06T15:26:04.220Z,29.91
2018-08-06T15:28:32.688Z,30.01
2018-08-06T15:31:01.171Z,29.91
2018-08-06T15:33:29.485Z,29.84
2018-08-06T15:35:57.804Z,29.80
2018-08-06T15:38:26.244Z,29.74
2018-08-06T15:40:54.901Z,29.92
2018-08-06T15:43:23.452Z,29.95
2018-08-06T15:45:51.814Z,29.96
2018-08-06T15:48:21.186Z,29.81
2018-08-06T15:50:49.660Z,29.86
2018-08-06T15:53:17.954Z,29.88
2018-08-06T15:55:46.263Z,29.92
2018-08-06T15:58:14.714Z,29.89
2018-08-06T16:00:43.113Z,29.83
2018-08-06T16:03:11.518Z,29.92
2018-08-06T16:05:39.825Z,29.72
2018-08-06T16:08:08.205Z,29.74
2018-08-06T16:10:36.539Z,29.79
2018-08-06T16:13:04.915Z,29.85
2018-08-06T16:15:33.272Z,29.91
2018-08-06T16:18:01.650Z,29.91
2018-08-06T16:20:30.004Z,29.99
2018-08-06T16:22:58.618Z,29.80
2018-08-06T16:25:26.948Z,29.86
2018-08-06T16:27:55.276Z,29.95
2018-08-06T16:30:25.109Z,29.94
2018-08-06T16:32:54.121Z,29.84
2018-08-06T16:35:23.918Z,29.82
2018-08-06T16:37:54.805Z,29.81
2018-08-06T16:40:23.113Z,29.79
2018-08-06T16:42:51.849Z,29.75
2018-08-06T16:45:20.328Z,29.73
2018-08-06T16:47:48.821Z,29.80
2018-08-06T16:50:17.869Z,29.73
2018-08-06T16:52:46.469Z,29.78
2018-08-06T16:55:14.846Z,29.62
2018-08-06T16:57:43.234Z,29.68
2018-08-06T17:00:16.328Z,29.76
2018-08-06T17:02:45.004Z,29.68
2018-08-06T17:05:14.001Z,29.72
2018-08-06T17:07:43.568Z,29.62
2018-08-06T17:10:14.932Z,29.61
2018-08-06T17:12:44.885Z,29.58
2018-08-06T17:15:14.743Z,29.56
2018-08-06T17:17:43.358Z,29.50
2018-08-06T17:20:15.775Z,29.39
2018-08-06T17:22:45.548Z,29.26
2018-08-06T17:25:14.144Z,29.27
2018-08-06T17:27:42.835Z,29.40
2018-08-06T17:30:12.233Z,29.24
2018-08-06T17:32:40.594Z,29.16
2018-08-06T17:35:10.505Z,29.19
2018-08-06T17:37:38.913Z,29.17
2018-08-06T17:40:13.853Z,29.18
2018-08-06T17:42:42.280Z,29.22
2018-08-06T17:45:14.037Z,29.16
2018-08-06T17:47:42.445Z,29.17
2018-08-06T17:50:13.067Z,29.08
2018-08-06T17:52:41.578Z,29.05
2018-08-06T17:55:09.989Z,29.01
2018-08-06T17:57:38.465Z,28.95
2018-08-06T18:00:08.153Z,28.80
2018-08-06T18:02:38.090Z,28.87
2018-08-06T18:05:08.236Z,28.78
2018-08-06T18:07:36.623Z,28.80
2018-08-06T18:10:06.412Z,28.64
2018-08-06T18:12:34.790Z,28.71
2018-08-06T18:15:03.885Z,28.71
2018-08-06T18:17:32.802Z,28.59
2018-08-06T18:20:01.124Z,28.49
2018-08-06T18:22:29.401Z,28.39
2018-08-06T18:24:57.895Z,28.53
2018-08-06T18:27:27.109Z,28.37
2018-08-06T18:29:55.765Z,28.37
2018-08-06T18:32:24.125Z,28.42
2018-08-06T18:34:52.462Z,28.30
2018-08-06T18:37:21.528Z,28.26
2018-08-06T18:39:49.860Z,28.20
2018-08-06T18:42:19.041Z,28.14
2018-08-06T18:44:48.393Z,28.05
2018-08-06T18:47:18.668Z,27.97
2018-08-06T18:49:47.073Z,27.90
2018-08-06T18:52:15.444Z,27.87
2018-08-06T18:54:43.987Z,27.86
2018-08-06T18:57:13.560Z,27.74
2018-08-06T18:59:42.927Z,27.62
2018-08-06T19:02:12.220Z,27.51
2018-08-06T19:04:41.605Z,27.46
2018-08-06T19:07:10.893Z,27.49
2018-08-06T19:09:40.062Z,27.37
2018-08-06T19:12:14.477Z,27.35
2018-08-06T19:14:43.861Z,27.26
2018-08-06T19:17:13.094Z,27.22
2018-08-06T19:19:42.396Z,27.22
2018-08-06T19:22:11.386Z,27.10
2018-08-06T19:24:45.661Z,27.06
2018-08-06T19:27:14.796Z,26.98
2018-08-06T19:29:43.222Z,26.85
2018-08-06T19:32:13.221Z,26.82
2018-08-06T19:34:42.528Z,26.83
2018-08-06T19:37:16.691Z,26.71
2018-08-06T19:39:46.812Z,26.58
2018-08-06T19:42:16.047Z,26.48
2018-08-06T19:44:45.036Z,26.49
2018-08-06T19:47:17.191Z,26.41
2018-08-06T19:49:51.564Z,26.25
2018-08-06T19:52:21.049Z,26.18
2018-08-06T19:54:50.259Z,26.21
2018-08-06T19:57:19.310Z,26.05
2018-08-06T19:59:47.692Z,25.97
2018-08-06T20:02:16.989Z,25.86
2018-08-06T20:04:46.072Z,25.89
2018-08-06T20:07:15.302Z,25.82
2018-08-06T20:09:44.124Z,25.75
2018-08-06T20:12:13.156Z,25.73
2018-08-06T20:14:42.071Z,25.62
2018-08-06T20:17:11.128Z,25.54
2018-08-06T20:19:40.250Z,25.55
2018-08-06T20:22:15.825Z,25.47
2018-08-06T20:24:47.200Z,25.25
2018-08-06T20:27:17.789Z,25.17
2018-08-06T20:29:47.166Z,25.23
2018-08-06T20:32:16.212Z,25.21
2018-08-06T20:34:46.052Z,25.05
2018-08-06T20:37:15.296Z,24.99
2018-08-06T20:39:43.781Z,25.10
2018-08-06T20:42:13.148Z,25.03
2018-08-06T20:44:42.314Z,24.98
2018-08-06T20:47:11.477Z,24.84
2018-08-06T20:49:40.618Z,24.78
2018-08-06T20:52:09.948Z,24.74
2018-08-06T20:54:38.588Z,24.66
2018-08-06T20:57:08.084Z,24.71
2018-08-06T20:59:37.370Z,24.63
2018-08-06T21:02:06.619Z,24.57
2018-08-06T21:04:35.691Z,24.51
2018-08-06T21:07:05.991Z,24.44
2018-08-06T21:09:36.048Z,24.38
2018-08-06T21:12:06.374Z,24.36
2018-08-06T21:14:35.433Z,24.25
2018-08-06T21:17:04.813Z,24.24
2018-08-06T21:19:34.240Z,24.22
2018-08-06T21:22:03.928Z,24.02
2018-08-06T21:24:33.366Z,24.15
2018-08-06T21:27:02.421Z,24.15
2018-08-06T21:29:32.921Z,24.11
2018-08-06T21:32:06.061Z,24.06
2018-08-06T21:34:35.306Z,24.07
2018-08-06T21:37:04.510Z,23.97
2018-08-06T21:39:34.509Z,24.08
2018-08-06T21:42:03.857Z,24.08
2018-08-06T21:44:33.260Z,24.05
2018-08-06T21:47:04.432Z,24.01
2018-08-06T21:49:33.718Z,23.98
2018-08-06T21:52:03.222Z,23.97
2018-08-06T21:54:35.848Z,23.89
2018-08-06T21:57:05.269Z,23.87
2018-08-06T21:59:35.009Z,23.92
2018-08-06T22:02:03.420Z,23.82
2018-08-06T22:04:33.224Z,23.80
2018-08-06T22:07:03.585Z,23.82
2018-08-06T22:09:33.057Z,23.78
2018-08-06T22:12:04.075Z,23.65
2018-08-06T22:14:33.157Z,23.63
2018-08-06T22:17:02.391Z,23.61
2018-08-06T22:19:31.291Z,23.66
2018-08-06T22:22:00.396Z,23.50
2018-08-06T22:24:29.576Z,23.55
2018-08-06T22:26:58.829Z,23.63
2018-08-06T22:29:28.180Z,23.57
2018-08-06T22:31:56.612Z,23.60
2018-08-06T22:34:24.953Z,23.61
2018-08-06T22:36:53.373Z,23.62
2018-08-06T22:39:21.770Z,23.57
2018-08-06T22:41:50.153Z,23.58
2018-08-06T22:44:18.544Z,23.50
2018-08-06T22:46:46.913Z,23.51
2018-08-06T22:49:15.294Z,23.45
2018-08-06T22:51:43.675Z,23.44
2018-08-06T22:54:12.046Z,23.57
2018-08-06T22:56:40.342Z,23.55
2018-08-06T22:59:08.673Z,23.60
2018-08-06T23:01:37.849Z,23.57
2018-08-06T23:04:06.286Z,23.53
2018-08-06T23:06:34.672Z,23.50
2018-08-06T23:09:03.076Z,23.59
2018-08-06T23:11:31.419Z,23.56
2018-08-06T23:13:59.736Z,23.51
2018-08-06T23:16:28.084Z,23.39
2018-08-06T23:18:56.534Z,23.34
2018-08-06T23:21:24.886Z,23.25
2018-08-06T23:23:53.191Z,23.20
2018-08-06T23:26:21.861Z,23.16
2018-08-06T23:28:50.183Z,23.31
2018-08-06T23:31:18.518Z,23.30
2018-08-06T23:33:46.909Z,23.18
2018-08-06T23:36:15.269Z,23.42
2018-08-06T23:38:43.619Z,23.41
2018-08-06T23:41:12.032Z,23.26
2018-08-06T23:43:40.345Z,23.19
2018-08-06T23:46:08.700Z,23.25
2018-08-06T23:48:37.079Z,23.18
2018-08-06T23:51:05.480Z,23.12
2018-08-06T23:53:33.926Z,23.13
2018-08-06T23:56:02.261Z,23.12
2018-08-06T23:59:01.288Z,23.19
